LA HONDA (LAH)

Elevation: 425' · SAN GREGORIO CR basin · Operator: CAL FIRE

Query executed Thursday at 1:24:06   clock

Provisional data, subject to change.
Select a sensor type for a plot of data.

Earlier

Date   /   Time   RAIN     TEMP     REL HUM     FUEL MS     FUEL TP     WIND SP     WIND DR     PEAK WS     PEAK WD     SOLAR R     BAT VOL    
(PDT)INCHES   DEG F   %   %   DEG F   MPH   DEG   MPH   DEG   W/M^2   VOLTS  
09/28/2016 01:00 0.10 62 45 4 56 4 89 5 90 0.00 12.9
09/28/2016 02:00 0.10 62 47 4 55 1 16 5 85 0.00 12.9
09/28/2016 03:00 0.10 61 48 4 54 2 72 4 78 0.00 12.9
09/28/2016 04:00 0.10 56 56 4 50 0 45 2 316 0.00 12.9
09/28/2016 05:00 0.10 56 61 4 50 3 87 5 92 0.00 12.9
09/28/2016 06:00 0.10 58 56 5 51 1 42 4 81 0.00 12.9
09/28/2016 07:00 0.10 54 58 5 49 0 272 2 40 1.00 12.9
09/28/2016 08:00 0.10 58 66 5 52 1 292 3 98 54.00 13.2
09/28/2016 09:00 0.10 62 63 6 65 4 240 6 220 231.00 13.8
09/28/2016 10:00 0.10 68 57 6 66 3 248 6 243 410.00 13.6
09/28/2016 11:00 0.10 74 48 6 87 3 255 6 229 566.00 13.5
09/28/2016 12:00 0.10 77 48 6 90 3 261 6 236 680.00 13.5
09/28/2016 13:00 0.10 79 46 7 90 3 256 6 234 739.00 13.4
09/28/2016 14:00 0.10 79 46 6 100 3 260 7 223 737.00 13.4
09/28/2016 15:00 0.10 75 50 6 96 3 247 7 260 676.00 13.4
09/28/2016 16:00 0.10 72 54 6 94 4 254 7 236 561.00 13.5
09/28/2016 17:00 0.10 71 54 5 89 3 251 6 232 403.00 13.6
09/28/2016 18:00 0.10 66 62 5 69 3 263 6 220 200.00 13.6
09/28/2016 19:00 0.10 57 79 5 56 2 247 5 238 14.00 13.3
09/28/2016 20:00 0.10 53 95 5 51 1 289 4 220 0.00 13.2
09/28/2016 21:00 0.10 52 100 6 51 0 226 3 170 0.00 13.1
09/28/2016 22:00 0.10 52 100 6 53 1 247 3 235 0.00 13.1
09/28/2016 23:00 0.10 52 100 7 53 1 292 5 5 0.00 13.0
09/29/2016 00:00 0.10 51 100 8 50 0 61 4 83 0.00 13.0
09/29/2016 01:00 0.10 50 100 10 52 2 86 3 64 0.00 13.0

Later | Latest

Warning! This data is preliminary and subject to revision.

Show LAH Map | 24 Hours LAH Data | Plot all LAH Sensors | Daily LAH Data | LAH Info